sensor_id;sensor_type;location;lat;lon;timestamp;P1;durP1;ratioP1;P2;durP2;ratioP2
25437;SDS011;13364;49.084;9.978;2022-10-16T00:02:25;7.18;;;2.15;;
25437;SDS011;13364;49.084;9.978;2022-10-16T00:04:52;3.25;;;1.50;;
25437;SDS011;13364;49.084;9.978;2022-10-16T00:07:21;3.85;;;1.60;;
25437;SDS011;13364;49.084;9.978;2022-10-16T00:09:48;2.50;;;1.70;;
25437;SDS011;13364;49.084;9.978;2022-10-16T00:12:15;1.95;;;1.80;;
25437;SDS011;13364;49.084;9.978;2022-10-16T00:14:42;5.05;;;1.75;;
25437;SDS011;13364;49.084;9.978;2022-10-16T00:17:10;5.25;;;1.75;;
25437;SDS011;13364;49.084;9.978;2022-10-16T00:19:37;2.50;;;1.90;;
25437;SDS011;13364;49.084;9.978;2022-10-16T00:22:05;3.30;;;1.88;;
25437;SDS011;13364;49.084;9.978;2022-10-16T00:24:31;11.02;;;2.25;;
25437;SDS011;13364;49.084;9.978;2022-10-16T00:26:59;5.25;;;1.88;;
25437;SDS011;13364;49.084;9.978;2022-10-16T00:33:45;4.25;;;2.15;;
25437;SDS011;13364;49.084;9.978;2022-10-16T00:36:13;5.05;;;2.25;;
25437;SDS011;13364;49.084;9.978;2022-10-16T00:38:42;2.35;;;2.08;;
25437;SDS011;13364;49.084;9.978;2022-10-16T00:41:11;5.63;;;2.38;;
25437;SDS011;13364;49.084;9.978;2022-10-16T00:49:07;3.58;;;2.13;;
25437;SDS011;13364;49.084;9.978;2022-10-16T00:51:43;2.60;;;1.85;;
25437;SDS011;13364;49.084;9.978;2022-10-16T00:54:13;12.88;;;2.58;;
25437;SDS011;13364;49.084;9.978;2022-10-16T00:56:47;3.15;;;2.22;;
25437;SDS011;13364;49.084;9.978;2022-10-16T00:59:16;3.22;;;2.00;;
25437;SDS011;13364;49.084;9.978;2022-10-16T01:01:47;1.65;;;1.55;;
25437;SDS011;13364;49.084;9.978;2022-10-16T01:04:14;3.05;;;1.92;;
25437;SDS011;13364;49.084;9.978;2022-10-16T01:09:47;3.53;;;1.88;;
25437;SDS011;13364;49.084;9.978;2022-10-16T01:20:44;2.35;;;1.83;;
25437;SDS011;13364;49.084;9.978;2022-10-16T01:32:10;3.90;;;1.73;;
25437;SDS011;13364;49.084;9.978;2022-10-16T01:38:00;1.70;;;1.60;;
25437;SDS011;13364;49.084;9.978;2022-10-16T01:40:36;1.90;;;1.67;;
25437;SDS011;13364;49.084;9.978;2022-10-16T01:43:18;4.43;;;1.90;;
25437;SDS011;13364;49.084;9.978;2022-10-16T01:45:49;2.80;;;1.77;;
25437;SDS011;13364;49.084;9.978;2022-10-16T01:48:18;2.55;;;1.63;;
25437;SDS011;13364;49.084;9.978;2022-10-16T01:50:56;2.03;;;1.50;;
25437;SDS011;13364;49.084;9.978;2022-10-16T01:53:35;2.30;;;1.60;;
25437;SDS011;13364;49.084;9.978;2022-10-16T01:56:03;3.15;;;1.50;;
25437;SDS011;13364;49.084;9.978;2022-10-16T01:58:34;3.45;;;1.50;;
25437;SDS011;13364;49.084;9.978;2022-10-16T02:01:06;3.05;;;1.50;;
25437;SDS011;13364;49.084;9.978;2022-10-16T02:03:36;2.17;;;1.47;;
25437;SDS011;13364;49.084;9.978;2022-10-16T02:06:07;4.35;;;1.40;;
25437;SDS011;13364;49.084;9.978;2022-10-16T02:08:34;2.75;;;1.10;;
25437;SDS011;13364;49.084;9.978;2022-10-16T02:11:02;3.65;;;1.50;;
25437;SDS011;13364;49.084;9.978;2022-10-16T02:13:39;1.63;;;1.40;;
25437;SDS011;13364;49.084;9.978;2022-10-16T02:16:12;2.33;;;1.50;;
25437;SDS011;13364;49.084;9.978;2022-10-16T02:18:41;2.20;;;1.48;;
25437;SDS011;13364;49.084;9.978;2022-10-16T02:21:22;2.67;;;1.35;;
25437;SDS011;13364;49.084;9.978;2022-10-16T02:24:01;2.65;;;1.42;;
25437;SDS011;13364;49.084;9.978;2022-10-16T02:26:52;2.85;;;1.20;;
25437;SDS011;13364;49.084;9.978;2022-10-16T02:29:28;2.85;;;1.35;;
25437;SDS011;13364;49.084;9.978;2022-10-16T02:31:58;2.30;;;1.20;;
25437;SDS011;13364;49.084;9.978;2022-10-16T02:34:27;2.60;;;1.23;;
25437;SDS011;13364;49.084;9.978;2022-10-16T02:37:00;1.85;;;1.05;;
25437;SDS011;13364;49.084;9.978;2022-10-16T02:41:55;1.75;;;1.20;;
25437;SDS011;13364;49.084;9.978;2022-10-16T02:44:22;4.47;;;1.50;;
25437;SDS011;13364;49.084;9.978;2022-10-16T02:46:49;1.67;;;1.10;;
25437;SDS011;13364;49.084;9.978;2022-10-16T02:49:16;2.58;;;1.50;;
25437;SDS011;13364;49.084;9.978;2022-10-16T02:51:44;4.20;;;1.17;;
25437;SDS011;13364;49.084;9.978;2022-10-16T02:54:11;3.60;;;1.10;;
25437;SDS011;13364;49.084;9.978;2022-10-16T02:56:39;2.67;;;1.00;;
25437;SDS011;13364;49.084;9.978;2022-10-16T02:59:06;2.75;;;1.27;;
25437;SDS011;13364;49.084;9.978;2022-10-16T03:01:33;2.22;;;1.20;;
25437;SDS011;13364;49.084;9.978;2022-10-16T03:04:02;4.43;;;1.10;;
25437;SDS011;13364;49.084;9.978;2022-10-16T03:06:29;3.08;;;1.27;;
25437;SDS011;13364;49.084;9.978;2022-10-16T03:08:56;2.05;;;1.17;;
25437;SDS011;13364;49.084;9.978;2022-10-16T03:11:23;3.65;;;1.13;;
25437;SDS011;13364;49.084;9.978;2022-10-16T03:13:50;1.33;;;1.20;;
25437;SDS011;13364;49.084;9.978;2022-10-16T03:16:17;1.58;;;1.10;;
25437;SDS011;13364;49.084;9.978;2022-10-16T03:18:47;1.42;;;1.10;;
25437;SDS011;13364;49.084;9.978;2022-10-16T03:21:16;1.60;;;1.10;;
25437;SDS011;13364;49.084;9.978;2022-10-16T03:23:43;1.52;;;1.20;;
25437;SDS011;13364;49.084;9.978;2022-10-16T03:26:10;1.92;;;1.10;;
25437;SDS011;13364;49.084;9.978;2022-10-16T03:28:37;3.22;;;1.02;;
25437;SDS011;13364;49.084;9.978;2022-10-16T03:31:04;1.38;;;1.27;;
25437;SDS011;13364;49.084;9.978;2022-10-16T03:33:31;1.30;;;1.20;;
25437;SDS011;13364;49.084;9.978;2022-10-16T03:35:58;2.90;;;1.33;;
25437;SDS011;13364;49.084;9.978;2022-10-16T03:38:25;2.97;;;1.38;;
25437;SDS011;13364;49.084;9.978;2022-10-16T03:40:52;1.50;;;1.10;;
25437;SDS011;13364;49.084;9.978;2022-10-16T03:43:19;1.05;;;0.95;;
25437;SDS011;13364;49.084;9.978;2022-10-16T03:45:46;1.98;;;1.00;;
25437;SDS011;13364;49.084;9.978;2022-10-16T03:48:13;1.08;;;1.05;;
25437;SDS011;13364;49.084;9.978;2022-10-16T03:50:40;2.75;;;1.20;;
25437;SDS011;13364;49.084;9.978;2022-10-16T03:53:07;1.95;;;1.30;;
25437;SDS011;13364;49.084;9.978;2022-10-16T03:55:34;2.55;;;0.98;;
25437;SDS011;13364;49.084;9.978;2022-10-16T03:58:02;10.07;;;1.30;;
25437;SDS011;13364;49.084;9.978;2022-10-16T04:00:29;0.85;;;0.77;;
25437;SDS011;13364;49.084;9.978;2022-10-16T04:02:56;2.63;;;0.80;;
25437;SDS011;13364;49.084;9.978;2022-10-16T04:05:23;1.20;;;1.10;;
25437;SDS011;13364;49.084;9.978;2022-10-16T04:07:50;2.03;;;1.10;;
25437;SDS011;13364;49.084;9.978;2022-10-16T04:10:17;2.30;;;0.98;;
25437;SDS011;13364;49.084;9.978;2022-10-16T04:12:45;1.13;;;0.98;;
25437;SDS011;13364;49.084;9.978;2022-10-16T04:15:12;2.38;;;1.52;;
25437;SDS011;13364;49.084;9.978;2022-10-16T04:17:39;7.05;;;1.17;;
25437;SDS011;13364;49.084;9.978;2022-10-16T04:20:06;4.03;;;1.05;;
25437;SDS011;13364;49.084;9.978;2022-10-16T04:22:33;2.28;;;1.08;;
25437;SDS011;13364;49.084;9.978;2022-10-16T04:25:00;2.70;;;1.10;;
25437;SDS011;13364;49.084;9.978;2022-10-16T04:27:27;1.20;;;1.10;;
25437;SDS011;13364;49.084;9.978;2022-10-16T04:29:55;2.60;;;1.10;;
25437;SDS011;13364;49.084;9.978;2022-10-16T04:32:22;2.03;;;1.42;;
25437;SDS011;13364;49.084;9.978;2022-10-16T04:34:49;1.27;;;1.17;;
25437;SDS011;13364;49.084;9.978;2022-10-16T04:37:16;4.57;;;1.10;;
25437;SDS011;13364;49.084;9.978;2022-10-16T04:39:43;2.45;;;1.52;;
25437;SDS011;13364;49.084;9.978;2022-10-16T04:42:11;3.90;;;1.40;;
25437;SDS011;13364;49.084;9.978;2022-10-16T04:44:38;3.15;;;1.48;;
25437;SDS011;13364;49.084;9.978;2022-10-16T04:47:05;4.15;;;1.38;;
25437;SDS011;13364;49.084;9.978;2022-10-16T04:49:32;1.67;;;1.58;;
25437;SDS011;13364;49.084;9.978;2022-10-16T04:51:59;2.25;;;1.48;;
25437;SDS011;13364;49.084;9.978;2022-10-16T04:54:26;4.50;;;1.58;;
25437;SDS011;13364;49.084;9.978;2022-10-16T04:56:53;5.30;;;1.55;;
25437;SDS011;13364;49.084;9.978;2022-10-16T04:59:20;2.47;;;1.58;;
25437;SDS011;13364;49.084;9.978;2022-10-16T05:01:48;3.90;;;1.30;;
25437;SDS011;13364;49.084;9.978;2022-10-16T05:04:15;3.50;;;1.70;;
25437;SDS011;13364;49.084;9.978;2022-10-16T05:06:42;1.45;;;1.35;;
25437;SDS011;13364;49.084;9.978;2022-10-16T05:09:10;2.65;;;1.55;;
25437;SDS011;13364;49.084;9.978;2022-10-16T05:11:37;4.75;;;1.90;;
25437;SDS011;13364;49.084;9.978;2022-10-16T05:14:04;3.33;;;1.55;;
25437;SDS011;13364;49.084;9.978;2022-10-16T05:16:31;2.13;;;1.92;;
25437;SDS011;13364;49.084;9.978;2022-10-16T05:18:58;5.07;;;1.63;;
25437;SDS011;13364;49.084;9.978;2022-10-16T05:21:45;5.07;;;1.50;;
25437;SDS011;13364;49.084;9.978;2022-10-16T05:24:12;3.55;;;1.45;;
25437;SDS011;13364;49.084;9.978;2022-10-16T05:26:39;1.67;;;1.55;;
25437;SDS011;13364;49.084;9.978;2022-10-16T05:29:06;2.10;;;1.48;;
25437;SDS011;13364;49.084;9.978;2022-10-16T05:31:33;6.38;;;1.70;;
25437;SDS011;13364;49.084;9.978;2022-10-16T05:34:00;2.70;;;1.55;;
25437;SDS011;13364;49.084;9.978;2022-10-16T05:36:28;2.75;;;1.88;;
25437;SDS011;13364;49.084;9.978;2022-10-16T05:38:55;5.32;;;1.90;;
25437;SDS011;13364;49.084;9.978;2022-10-16T05:41:22;3.53;;;2.05;;
25437;SDS011;13364;49.084;9.978;2022-10-16T05:43:52;2.88;;;2.10;;
25437;SDS011;13364;49.084;9.978;2022-10-16T05:46:19;4.38;;;1.92;;
25437;SDS011;13364;49.084;9.978;2022-10-16T05:48:47;2.97;;;2.13;;
25437;SDS011;13364;49.084;9.978;2022-10-16T05:51:14;6.88;;;2.20;;
25437;SDS011;13364;49.084;9.978;2022-10-16T05:53:41;6.60;;;1.90;;
25437;SDS011;13364;49.084;9.978;2022-10-16T05:56:10;2.38;;;1.60;;
25437;SDS011;13364;49.084;9.978;2022-10-16T05:58:39;2.53;;;1.80;;
25437;SDS011;13364;49.084;9.978;2022-10-16T06:01:11;2.83;;;1.88;;
25437;SDS011;13364;49.084;9.978;2022-10-16T06:03:41;2.70;;;1.67;;
25437;SDS011;13364;49.084;9.978;2022-10-16T06:06:18;6.38;;;2.50;;
25437;SDS011;13364;49.084;9.978;2022-10-16T06:08:47;3.90;;;2.45;;
25437;SDS011;13364;49.084;9.978;2022-10-16T06:11:22;4.28;;;2.10;;
25437;SDS011;13364;49.084;9.978;2022-10-16T06:13:51;7.00;;;3.75;;
25437;SDS011;13364;49.084;9.978;2022-10-16T06:16:19;4.00;;;3.10;;
25437;SDS011;13364;49.084;9.978;2022-10-16T06:22:06;6.35;;;2.58;;
25437;SDS011;13364;49.084;9.978;2022-10-16T06:24:33;4.72;;;2.90;;
25437;SDS011;13364;49.084;9.978;2022-10-16T06:27:00;3.22;;;2.95;;
25437;SDS011;13364;49.084;9.978;2022-10-16T06:29:27;3.88;;;2.70;;
25437;SDS011;13364;49.084;9.978;2022-10-16T06:31:54;5.25;;;2.58;;
25437;SDS011;13364;49.084;9.978;2022-10-16T06:34:21;5.13;;;3.00;;
25437;SDS011;13364;49.084;9.978;2022-10-16T06:36:48;5.65;;;2.92;;
25437;SDS011;13364;49.084;9.978;2022-10-16T06:39:15;5.68;;;3.15;;
25437;SDS011;13364;49.084;9.978;2022-10-16T06:41:42;4.63;;;3.03;;
25437;SDS011;13364;49.084;9.978;2022-10-16T06:44:14;5.78;;;3.15;;
25437;SDS011;13364;49.084;9.978;2022-10-16T06:46:41;4.72;;;3.30;;
25437;SDS011;13364;49.084;9.978;2022-10-16T06:49:08;3.08;;;2.72;;
25437;SDS011;13364;49.084;9.978;2022-10-16T06:51:35;4.05;;;3.10;;
25437;SDS011;13364;49.084;9.978;2022-10-16T06:54:08;5.45;;;3.10;;
25437;SDS011;13364;49.084;9.978;2022-10-16T06:56:36;2.85;;;2.50;;
25437;SDS011;13364;49.084;9.978;2022-10-16T06:59:03;3.63;;;3.08;;
25437;SDS011;13364;49.084;9.978;2022-10-16T07:01:31;6.50;;;2.72;;
25437;SDS011;13364;49.084;9.978;2022-10-16T07:03:59;8.73;;;3.08;;
25437;SDS011;13364;49.084;9.978;2022-10-16T07:06:30;8.63;;;3.45;;
25437;SDS011;13364;49.084;9.978;2022-10-16T07:09:00;3.97;;;2.50;;
25437;SDS011;13364;49.084;9.978;2022-10-16T07:11:31;3.05;;;2.60;;
25437;SDS011;13364;49.084;9.978;2022-10-16T07:13:59;3.53;;;2.78;;
25437;SDS011;13364;49.084;9.978;2022-10-16T07:16:27;6.35;;;2.95;;
25437;SDS011;13364;49.084;9.978;2022-10-16T07:18:56;4.30;;;2.45;;
25437;SDS011;13364;49.084;9.978;2022-10-16T07:21:33;3.25;;;2.83;;
25437;SDS011;13364;49.084;9.978;2022-10-16T07:24:05;3.60;;;2.40;;
25437;SDS011;13364;49.084;9.978;2022-10-16T07:26:37;2.78;;;2.20;;
25437;SDS011;13364;49.084;9.978;2022-10-16T07:29:15;3.27;;;2.40;;
25437;SDS011;13364;49.084;9.978;2022-10-16T07:31:47;3.28;;;1.95;;
25437;SDS011;13364;49.084;9.978;2022-10-16T07:34:16;3.60;;;2.30;;
25437;SDS011;13364;49.084;9.978;2022-10-16T07:36:47;2.95;;;2.13;;
25437;SDS011;13364;49.084;9.978;2022-10-16T07:39:15;5.22;;;2.42;;
25437;SDS011;13364;49.084;9.978;2022-10-16T07:41:42;4.30;;;2.33;;
25437;SDS011;13364;49.084;9.978;2022-10-16T07:44:09;3.35;;;3.05;;
25437;SDS011;13364;49.084;9.978;2022-10-16T07:46:36;4.70;;;2.22;;
25437;SDS011;13364;49.084;9.978;2022-10-16T07:49:03;5.50;;;2.88;;
25437;SDS011;13364;49.084;9.978;2022-10-16T07:51:30;5.53;;;2.22;;
25437;SDS011;13364;49.084;9.978;2022-10-16T07:53:57;5.25;;;1.60;;
25437;SDS011;13364;49.084;9.978;2022-10-16T07:56:24;2.33;;;2.10;;
25437;SDS011;13364;49.084;9.978;2022-10-16T07:58:52;3.40;;;2.03;;
25437;SDS011;13364;49.084;9.978;2022-10-16T08:01:19;5.05;;;2.30;;
25437;SDS011;13364;49.084;9.978;2022-10-16T08:03:48;3.80;;;2.10;;
25437;SDS011;13364;49.084;9.978;2022-10-16T08:06:17;7.03;;;2.30;;
25437;SDS011;13364;49.084;9.978;2022-10-16T08:08:52;4.57;;;2.58;;
25437;SDS011;13364;49.084;9.978;2022-10-16T08:11:20;3.83;;;3.08;;
25437;SDS011;13364;49.084;9.978;2022-10-16T08:13:47;5.38;;;2.60;;
25437;SDS011;13364;49.084;9.978;2022-10-16T08:16:14;4.28;;;2.22;;
25437;SDS011;13364;49.084;9.978;2022-10-16T08:18:43;2.90;;;2.33;;
25437;SDS011;13364;49.084;9.978;2022-10-16T08:21:15;5.30;;;2.50;;
25437;SDS011;13364;49.084;9.978;2022-10-16T08:23:47;3.55;;;2.70;;
25437;SDS011;13364;49.084;9.978;2022-10-16T08:26:23;3.50;;;2.50;;
25437;SDS011;13364;49.084;9.978;2022-10-16T08:28:51;5.13;;;2.70;;
25437;SDS011;13364;49.084;9.978;2022-10-16T08:31:22;5.75;;;2.08;;
25437;SDS011;13364;49.084;9.978;2022-10-16T08:33:49;9.10;;;2.22;;
25437;SDS011;13364;49.084;9.978;2022-10-16T08:36:18;3.13;;;1.92;;
25437;SDS011;13364;49.084;9.978;2022-10-16T08:38:47;4.80;;;1.33;;
25437;SDS011;13364;49.084;9.978;2022-10-16T08:41:36;1.67;;;1.58;;
25437;SDS011;13364;49.084;9.978;2022-10-16T08:49:47;1.80;;;1.70;;
25437;SDS011;13364;49.084;9.978;2022-10-16T08:52:24;3.25;;;1.60;;
25437;SDS011;13364;49.084;9.978;2022-10-16T08:54:56;1.85;;;1.45;;
25437;SDS011;13364;49.084;9.978;2022-10-16T08:57:24;1.65;;;1.35;;
25437;SDS011;13364;49.084;9.978;2022-10-16T08:59:53;4.75;;;1.52;;
25437;SDS011;13364;49.084;9.978;2022-10-16T09:02:31;4.20;;;1.67;;
25437;SDS011;13364;49.084;9.978;2022-10-16T09:13:50;3.90;;;1.73;;
25437;SDS011;13364;49.084;9.978;2022-10-16T09:16:46;1.88;;;1.60;;
25437;SDS011;13364;49.084;9.978;2022-10-16T09:19:23;1.30;;;1.10;;
25437;SDS011;13364;49.084;9.978;2022-10-16T09:22:04;2.70;;;1.50;;
25437;SDS011;13364;49.084;9.978;2022-10-16T09:24:41;7.00;;;1.60;;
25437;SDS011;13364;49.084;9.978;2022-10-16T09:27:12;2.13;;;1.55;;
25437;SDS011;13364;49.084;9.978;2022-10-16T09:29:40;6.18;;;1.48;;
25437;SDS011;13364;49.084;9.978;2022-10-16T09:32:15;3.35;;;1.73;;
25437;SDS011;13364;49.084;9.978;2022-10-16T09:34:47;4.72;;;3.60;;
25437;SDS011;13364;49.084;9.978;2022-10-16T09:37:18;6.05;;;3.60;;
25437;SDS011;13364;49.084;9.978;2022-10-16T09:39:48;4.05;;;2.25;;
25437;SDS011;13364;49.084;9.978;2022-10-16T09:42:18;6.53;;;2.25;;
25437;SDS011;13364;49.084;9.978;2022-10-16T09:45:02;3.05;;;1.55;;
25437;SDS011;13364;49.084;9.978;2022-10-16T09:47:31;4.05;;;1.60;;
25437;SDS011;13364;49.084;9.978;2022-10-16T09:50:05;3.13;;;1.38;;
25437;SDS011;13364;49.084;9.978;2022-10-16T09:53:04;1.85;;;1.20;;
25437;SDS011;13364;49.084;9.978;2022-10-16T09:55:31;1.83;;;1.20;;
25437;SDS011;13364;49.084;9.978;2022-10-16T09:57:59;7.72;;;1.50;;
25437;SDS011;13364;49.084;9.978;2022-10-16T10:00:27;1.50;;;1.30;;
25437;SDS011;13364;49.084;9.978;2022-10-16T10:02:54;1.92;;;1.30;;
25437;SDS011;13364;49.084;9.978;2022-10-16T10:05:26;3.05;;;1.35;;
25437;SDS011;13364;49.084;9.978;2022-10-16T10:07:59;1.40;;;1.27;;
25437;SDS011;13364;49.084;9.978;2022-10-16T10:10:34;1.73;;;1.63;;
25437;SDS011;13364;49.084;9.978;2022-10-16T10:13:17;4.47;;;1.40;;
25437;SDS011;13364;49.084;9.978;2022-10-16T10:15:46;5.82;;;1.30;;
25437;SDS011;13364;49.084;9.978;2022-10-16T10:18:16;5.50;;;1.40;;
25437;SDS011;13364;49.084;9.978;2022-10-16T10:20:46;3.10;;;1.35;;
25437;SDS011;13364;49.084;9.978;2022-10-16T10:23:26;3.23;;;1.10;;
25437;SDS011;13364;49.084;9.978;2022-10-16T10:31:43;1.17;;;1.02;;
25437;SDS011;13364;49.084;9.978;2022-10-16T10:39:56;3.83;;;1.50;;
25437;SDS011;13364;49.084;9.978;2022-10-16T11:01:42;1.67;;;1.30;;
25437;SDS011;13364;49.084;9.978;2022-10-16T11:04:46;12.05;;;1.83;;
25437;SDS011;13364;49.084;9.978;2022-10-16T11:07:17;3.30;;;1.50;;
25437;SDS011;13364;49.084;9.978;2022-10-16T11:10:18;3.25;;;1.75;;
25437;SDS011;13364;49.084;9.978;2022-10-16T11:12:59;7.45;;;1.35;;
25437;SDS011;13364;49.084;9.978;2022-10-16T11:15:47;4.55;;;1.73;;
25437;SDS011;13364;49.084;9.978;2022-10-16T11:22:47;1.77;;;1.30;;
25437;SDS011;13364;49.084;9.978;2022-10-16T11:25:23;1.45;;;1.10;;
25437;SDS011;13364;49.084;9.978;2022-10-16T11:28:03;4.50;;;1.30;;
25437;SDS011;13364;49.084;9.978;2022-10-16T11:30:46;5.15;;;1.30;;
25437;SDS011;13364;49.084;9.978;2022-10-16T11:38:43;1.52;;;1.10;;
25437;SDS011;13364;49.084;9.978;2022-10-16T11:46:41;5.35;;;1.23;;
25437;SDS011;13364;49.084;9.978;2022-10-16T11:49:38;4.32;;;1.30;;
25437;SDS011;13364;49.084;9.978;2022-10-16T11:52:26;2.38;;;1.05;;
25437;SDS011;13364;49.084;9.978;2022-10-16T11:55:01;3.05;;;1.70;;
25437;SDS011;13364;49.084;9.978;2022-10-16T11:57:34;3.03;;;1.30;;
25437;SDS011;13364;49.084;9.978;2022-10-16T12:00:20;3.17;;;1.25;;
25437;SDS011;13364;49.084;9.978;2022-10-16T12:08:07;4.43;;;1.25;;
25437;SDS011;13364;49.084;9.978;2022-10-16T12:10:38;1.60;;;1.02;;
25437;SDS011;13364;49.084;9.978;2022-10-16T12:18:40;1.20;;;1.10;;
25437;SDS011;13364;49.084;9.978;2022-10-16T12:21:10;3.58;;;1.20;;
25437;SDS011;13364;49.084;9.978;2022-10-16T12:23:49;2.47;;;0.98;;
25437;SDS011;13364;49.084;9.978;2022-10-16T12:26:32;2.45;;;1.38;;
25437;SDS011;13364;49.084;9.978;2022-10-16T12:29:14;2.30;;;1.30;;
25437;SDS011;13364;49.084;9.978;2022-10-16T12:32:04;1.13;;;1.10;;
25437;SDS011;13364;49.084;9.978;2022-10-16T12:35:22;1.67;;;1.10;;
25437;SDS011;13364;49.084;9.978;2022-10-16T12:37:53;4.72;;;1.50;;
25437;SDS011;13364;49.084;9.978;2022-10-16T12:40:25;3.25;;;1.30;;
25437;SDS011;13364;49.084;9.978;2022-10-16T12:42:58;1.52;;;1.10;;
25437;SDS011;13364;49.084;9.978;2022-10-16T12:47:55;2.17;;;1.20;;
25437;SDS011;13364;49.084;9.978;2022-10-16T12:50:28;1.75;;;1.30;;
25437;SDS011;13364;49.084;9.978;2022-10-16T12:53:03;1.33;;;1.10;;
25437;SDS011;13364;49.084;9.978;2022-10-16T12:56:04;1.92;;;1.30;;
25437;SDS011;13364;49.084;9.978;2022-10-16T13:01:38;5.10;;;1.20;;
25437;SDS011;13364;49.084;9.978;2022-10-16T13:04:34;3.30;;;1.10;;
25437;SDS011;13364;49.084;9.978;2022-10-16T13:19:41;4.10;;;1.20;;
25437;SDS011;13364;49.084;9.978;2022-10-16T13:30:42;1.67;;;1.30;;
25437;SDS011;13364;49.084;9.978;2022-10-16T13:33:18;6.05;;;1.13;;
25437;SDS011;13364;49.084;9.978;2022-10-16T13:35:53;1.10;;;1.00;;
25437;SDS011;13364;49.084;9.978;2022-10-16T13:41:16;4.32;;;0.90;;
25437;SDS011;13364;49.084;9.978;2022-10-16T13:43:45;3.40;;;1.10;;
25437;SDS011;13364;49.084;9.978;2022-10-16T13:46:20;6.88;;;1.20;;
25437;SDS011;13364;49.084;9.978;2022-10-16T13:51:59;2.20;;;1.27;;
25437;SDS011;13364;49.084;9.978;2022-10-16T13:54:27;6.55;;;1.20;;
25437;SDS011;13364;49.084;9.978;2022-10-16T13:57:04;3.80;;;1.08;;
25437;SDS011;13364;49.084;9.978;2022-10-16T13:59:54;2.60;;;1.20;;
25437;SDS011;13364;49.084;9.978;2022-10-16T14:02:25;1.15;;;1.05;;
25437;SDS011;13364;49.084;9.978;2022-10-16T14:04:56;3.95;;;1.35;;
25437;SDS011;13364;49.084;9.978;2022-10-16T14:07:29;9.60;;;1.27;;
25437;SDS011;13364;49.084;9.978;2022-10-16T14:10:01;9.75;;;1.65;;
25437;SDS011;13364;49.084;9.978;2022-10-16T14:15:32;1.98;;;1.20;;
25437;SDS011;13364;49.084;9.978;2022-10-16T14:18:02;2.13;;;1.20;;
25437;SDS011;13364;49.084;9.978;2022-10-16T14:20:30;3.20;;;1.20;;
25437;SDS011;13364;49.084;9.978;2022-10-16T14:25:32;6.90;;;1.40;;
25437;SDS011;13364;49.084;9.978;2022-10-16T14:30:27;5.63;;;1.42;;
25437;SDS011;13364;49.084;9.978;2022-10-16T14:33:00;2.70;;;1.20;;
25437;SDS011;13364;49.084;9.978;2022-10-16T14:35:33;6.13;;;1.45;;
25437;SDS011;13364;49.084;9.978;2022-10-16T14:38:05;3.78;;;1.30;;
25437;SDS011;13364;49.084;9.978;2022-10-16T14:40:45;2.67;;;1.30;;
25437;SDS011;13364;49.084;9.978;2022-10-16T14:46:41;5.93;;;1.40;;
25437;SDS011;13364;49.084;9.978;2022-10-16T14:51:37;3.20;;;1.80;;
25437;SDS011;13364;49.084;9.978;2022-10-16T14:58:04;7.47;;;1.60;;
25437;SDS011;13364;49.084;9.978;2022-10-16T15:00:31;4.05;;;1.35;;
25437;SDS011;13364;49.084;9.978;2022-10-16T15:02:58;2.25;;;1.48;;
25437;SDS011;13364;49.084;9.978;2022-10-16T15:05:26;3.35;;;1.23;;
25437;SDS011;13364;49.084;9.978;2022-10-16T15:07:54;1.30;;;1.20;;
25437;SDS011;13364;49.084;9.978;2022-10-16T15:10:27;2.95;;;1.20;;
25437;SDS011;13364;49.084;9.978;2022-10-16T15:12:55;3.95;;;1.50;;
25437;SDS011;13364;49.084;9.978;2022-10-16T15:17:51;1.95;;;1.33;;
25437;SDS011;13364;49.084;9.978;2022-10-16T15:20:26;2.63;;;1.13;;
25437;SDS011;13364;49.084;9.978;2022-10-16T15:22:54;6.18;;;1.40;;
25437;SDS011;13364;49.084;9.978;2022-10-16T15:28:49;3.47;;;1.27;;
25437;SDS011;13364;49.084;9.978;2022-10-16T15:31:16;3.78;;;1.60;;
25437;SDS011;13364;49.084;9.978;2022-10-16T15:33:43;4.07;;;1.65;;
25437;SDS011;13364;49.084;9.978;2022-10-16T15:36:14;4.35;;;1.63;;
25437;SDS011;13364;49.084;9.978;2022-10-16T15:38:41;5.20;;;1.73;;
25437;SDS011;13364;49.084;9.978;2022-10-16T15:41:08;7.72;;;1.50;;
25437;SDS011;13364;49.084;9.978;2022-10-16T15:43:36;8.35;;;2.35;;
25437;SDS011;13364;49.084;9.978;2022-10-16T15:46:04;10.27;;;2.28;;
25437;SDS011;13364;49.084;9.978;2022-10-16T15:48:34;10.43;;;2.55;;
25437;SDS011;13364;49.084;9.978;2022-10-16T15:51:05;8.73;;;3.70;;
25437;SDS011;13364;49.084;9.978;2022-10-16T15:56:30;7.65;;;2.72;;
25437;SDS011;13364;49.084;9.978;2022-10-16T15:58:59;6.43;;;2.50;;
25437;SDS011;13364;49.084;9.978;2022-10-16T16:01:31;3.78;;;2.92;;
25437;SDS011;13364;49.084;9.978;2022-10-16T16:03:59;4.28;;;2.63;;
25437;SDS011;13364;49.084;9.978;2022-10-16T16:06:32;5.65;;;3.40;;
25437;SDS011;13364;49.084;9.978;2022-10-16T16:09:00;7.53;;;2.70;;
25437;SDS011;13364;49.084;9.978;2022-10-16T16:11:28;6.43;;;2.03;;
25437;SDS011;13364;49.084;9.978;2022-10-16T16:16:25;6.13;;;1.60;;
25437;SDS011;13364;49.084;9.978;2022-10-16T16:18:52;3.58;;;1.90;;
25437;SDS011;13364;49.084;9.978;2022-10-16T16:21:33;3.53;;;2.10;;
25437;SDS011;13364;49.084;9.978;2022-10-16T16:24:00;8.90;;;2.35;;
25437;SDS011;13364;49.084;9.978;2022-10-16T16:26:34;2.13;;;1.92;;
25437;SDS011;13364;49.084;9.978;2022-10-16T16:29:03;2.90;;;1.83;;
25437;SDS011;13364;49.084;9.978;2022-10-16T16:31:31;4.93;;;1.92;;
25437;SDS011;13364;49.084;9.978;2022-10-16T16:33:59;3.67;;;1.90;;
25437;SDS011;13364;49.084;9.978;2022-10-16T16:36:27;7.60;;;2.00;;
25437;SDS011;13364;49.084;9.978;2022-10-16T16:38:55;5.47;;;1.90;;
25437;SDS011;13364;49.084;9.978;2022-10-16T16:41:24;4.68;;;1.80;;
25437;SDS011;13364;49.084;9.978;2022-10-16T16:43:53;2.70;;;1.70;;
25437;SDS011;13364;49.084;9.978;2022-10-16T16:46:21;3.30;;;2.05;;
25437;SDS011;13364;49.084;9.978;2022-10-16T16:48:48;2.45;;;1.60;;
25437;SDS011;13364;49.084;9.978;2022-10-16T16:51:21;5.50;;;2.03;;
25437;SDS011;13364;49.084;9.978;2022-10-16T16:57:19;2.90;;;2.00;;
25437;SDS011;13364;49.084;9.978;2022-10-16T16:59:46;1.80;;;1.70;;
25437;SDS011;13364;49.084;9.978;2022-10-16T17:02:16;2.53;;;1.75;;
25437;SDS011;13364;49.084;9.978;2022-10-16T17:04:43;4.85;;;1.80;;
25437;SDS011;13364;49.084;9.978;2022-10-16T17:07:10;3.03;;;1.88;;
25437;SDS011;13364;49.084;9.978;2022-10-16T17:09:37;6.47;;;2.25;;
25437;SDS011;13364;49.084;9.978;2022-10-16T17:12:04;4.45;;;2.25;;
25437;SDS011;13364;49.084;9.978;2022-10-16T17:14:31;6.63;;;2.45;;
25437;SDS011;13364;49.084;9.978;2022-10-16T17:16:58;2.42;;;1.98;;
25437;SDS011;13364;49.084;9.978;2022-10-16T17:19:25;2.83;;;1.98;;
25437;SDS011;13364;49.084;9.978;2022-10-16T17:21:52;7.82;;;2.20;;
25437;SDS011;13364;49.084;9.978;2022-10-16T17:24:20;4.25;;;1.98;;
25437;SDS011;13364;49.084;9.978;2022-10-16T17:26:47;2.15;;;1.60;;
25437;SDS011;13364;49.084;9.978;2022-10-16T17:29:15;3.90;;;2.05;;
25437;SDS011;13364;49.084;9.978;2022-10-16T17:31:43;5.85;;;2.13;;
25437;SDS011;13364;49.084;9.978;2022-10-16T17:34:11;4.13;;;2.00;;
25437;SDS011;13364;49.084;9.978;2022-10-16T17:36:39;5.78;;;1.80;;
25437;SDS011;13364;49.084;9.978;2022-10-16T17:39:14;7.25;;;2.30;;
25437;SDS011;13364;49.084;9.978;2022-10-16T17:41:43;4.03;;;2.03;;
25437;SDS011;13364;49.084;9.978;2022-10-16T17:44:11;9.05;;;2.05;;
25437;SDS011;13364;49.084;9.978;2022-10-16T17:46:45;3.28;;;2.00;;
25437;SDS011;13364;49.084;9.978;2022-10-16T17:49:14;2.57;;;2.00;;
25437;SDS011;13364;49.084;9.978;2022-10-16T17:51:42;3.15;;;2.10;;
25437;SDS011;13364;49.084;9.978;2022-10-16T17:54:09;3.25;;;2.10;;
25437;SDS011;13364;49.084;9.978;2022-10-16T17:56:39;11.93;;;2.40;;
25437;SDS011;13364;49.084;9.978;2022-10-16T17:59:07;3.78;;;2.53;;
25437;SDS011;13364;49.084;9.978;2022-10-16T18:01:36;4.20;;;2.20;;
25437;SDS011;13364;49.084;9.978;2022-10-16T18:04:07;2.88;;;2.10;;
25437;SDS011;13364;49.084;9.978;2022-10-16T18:06:35;10.07;;;2.35;;